sensor_id;sensor_type;location;lat;lon;timestamp;P1;durP1;ratioP1;P2;durP2;ratioP2
7531;SDS011;3807;49.030;8.714;2023-11-19T00:01:51;7.97;;;3.00;;
7531;SDS011;3807;49.030;8.714;2023-11-19T00:04:16;3.93;;;3.10;;
7531;SDS011;3807;49.030;8.714;2023-11-19T00:06:42;6.03;;;3.20;;
7531;SDS011;3807;49.030;8.714;2023-11-19T00:09:07;5.30;;;3.07;;
7531;SDS011;3807;49.030;8.714;2023-11-19T00:11:33;4.57;;;2.90;;
7531;SDS011;3807;49.030;8.714;2023-11-19T00:13:58;5.03;;;3.10;;
7531;SDS011;3807;49.030;8.714;2023-11-19T00:16:23;6.30;;;3.33;;
7531;SDS011;3807;49.030;8.714;2023-11-19T00:18:49;4.40;;;2.87;;
7531;SDS011;3807;49.030;8.714;2023-11-19T00:21:14;6.03;;;3.30;;
7531;SDS011;3807;49.030;8.714;2023-11-19T00:23:40;5.63;;;3.37;;
7531;SDS011;3807;49.030;8.714;2023-11-19T00:26:05;4.50;;;3.60;;
7531;SDS011;3807;49.030;8.714;2023-11-19T00:28:31;4.67;;;3.10;;
7531;SDS011;3807;49.030;8.714;2023-11-19T00:30:58;5.27;;;3.30;;
7531;SDS011;3807;49.030;8.714;2023-11-19T00:33:23;4.63;;;3.10;;
7531;SDS011;3807;49.030;8.714;2023-11-19T00:35:49;4.40;;;3.20;;
7531;SDS011;3807;49.030;8.714;2023-11-19T00:38:15;5.80;;;3.10;;
7531;SDS011;3807;49.030;8.714;2023-11-19T00:40:40;5.47;;;2.90;;
7531;SDS011;3807;49.030;8.714;2023-11-19T00:43:06;6.93;;;3.13;;
7531;SDS011;3807;49.030;8.714;2023-11-19T00:45:32;3.93;;;3.03;;
7531;SDS011;3807;49.030;8.714;2023-11-19T00:47:57;6.23;;;3.87;;
7531;SDS011;3807;49.030;8.714;2023-11-19T00:50:24;5.20;;;3.40;;
7531;SDS011;3807;49.030;8.714;2023-11-19T00:52:50;5.63;;;3.17;;
7531;SDS011;3807;49.030;8.714;2023-11-19T00:55:15;11.23;;;3.57;;
7531;SDS011;3807;49.030;8.714;2023-11-19T00:57:40;9.37;;;2.87;;
7531;SDS011;3807;49.030;8.714;2023-11-19T01:00:06;6.90;;;3.20;;
7531;SDS011;3807;49.030;8.714;2023-11-19T01:02:40;5.63;;;3.07;;
7531;SDS011;3807;49.030;8.714;2023-11-19T01:05:07;3.87;;;3.00;;
7531;SDS011;3807;49.030;8.714;2023-11-19T01:07:33;3.87;;;2.97;;
7531;SDS011;3807;49.030;8.714;2023-11-19T01:09:58;10.47;;;3.27;;
7531;SDS011;3807;49.030;8.714;2023-11-19T01:12:23;5.47;;;3.17;;
7531;SDS011;3807;49.030;8.714;2023-11-19T01:14:49;5.70;;;3.43;;
7531;SDS011;3807;49.030;8.714;2023-11-19T01:17:15;6.10;;;3.30;;
7531;SDS011;3807;49.030;8.714;2023-11-19T01:19:41;6.17;;;3.03;;
7531;SDS011;3807;49.030;8.714;2023-11-19T01:22:06;4.83;;;3.07;;
7531;SDS011;3807;49.030;8.714;2023-11-19T01:24:32;3.20;;;2.57;;
7531;SDS011;3807;49.030;8.714;2023-11-19T01:26:57;4.67;;;3.30;;
7531;SDS011;3807;49.030;8.714;2023-11-19T01:29:24;4.23;;;2.97;;
7531;SDS011;3807;49.030;8.714;2023-11-19T01:31:50;7.57;;;3.33;;
7531;SDS011;3807;49.030;8.714;2023-11-19T01:34:18;2.70;;;2.30;;
7531;SDS011;3807;49.030;8.714;2023-11-19T01:36:43;3.40;;;1.93;;
7531;SDS011;3807;49.030;8.714;2023-11-19T01:39:09;3.87;;;1.70;;
7531;SDS011;3807;49.030;8.714;2023-11-19T01:41:34;6.10;;;1.70;;
7531;SDS011;3807;49.030;8.714;2023-11-19T01:44:00;2.20;;;1.27;;
7531;SDS011;3807;49.030;8.714;2023-11-19T01:46:26;0.90;;;0.90;;
7531;SDS011;3807;49.030;8.714;2023-11-19T01:48:52;3.17;;;0.80;;
7531;SDS011;3807;49.030;8.714;2023-11-19T01:51:18;0.80;;;0.80;;
7531;SDS011;3807;49.030;8.714;2023-11-19T01:53:45;1.67;;;0.90;;
7531;SDS011;3807;49.030;8.714;2023-11-19T01:56:11;0.80;;;0.80;;
7531;SDS011;3807;49.030;8.714;2023-11-19T01:58:39;0.80;;;0.80;;
7531;SDS011;3807;49.030;8.714;2023-11-19T02:01:06;0.80;;;0.80;;
7531;SDS011;3807;49.030;8.714;2023-11-19T02:03:32;1.03;;;0.73;;
7531;SDS011;3807;49.030;8.714;2023-11-19T02:06:00;0.90;;;0.90;;
7531;SDS011;3807;49.030;8.714;2023-11-19T02:08:26;0.70;;;0.70;;
7531;SDS011;3807;49.030;8.714;2023-11-19T02:10:52;0.70;;;0.70;;
7531;SDS011;3807;49.030;8.714;2023-11-19T02:13:18;0.80;;;0.80;;
7531;SDS011;3807;49.030;8.714;2023-11-19T02:15:44;1.07;;;0.80;;
7531;SDS011;3807;49.030;8.714;2023-11-19T02:18:19;0.70;;;0.70;;
7531;SDS011;3807;49.030;8.714;2023-11-19T02:20:46;2.63;;;0.90;;
7531;SDS011;3807;49.030;8.714;2023-11-19T02:23:12;1.73;;;0.70;;
7531;SDS011;3807;49.030;8.714;2023-11-19T02:25:38;0.80;;;0.80;;
7531;SDS011;3807;49.030;8.714;2023-11-19T02:28:05;1.03;;;0.80;;
7531;SDS011;3807;49.030;8.714;2023-11-19T02:30:31;1.00;;;0.90;;
7531;SDS011;3807;49.030;8.714;2023-11-19T02:32:57;0.70;;;0.70;;
7531;SDS011;3807;49.030;8.714;2023-11-19T02:35:25;0.80;;;0.80;;
7531;SDS011;3807;49.030;8.714;2023-11-19T02:37:51;0.70;;;0.70;;
7531;SDS011;3807;49.030;8.714;2023-11-19T02:40:16;1.07;;;0.97;;
7531;SDS011;3807;49.030;8.714;2023-11-19T02:42:42;1.57;;;1.07;;
7531;SDS011;3807;49.030;8.714;2023-11-19T02:45:08;2.43;;;0.70;;
7531;SDS011;3807;49.030;8.714;2023-11-19T02:47:38;2.33;;;0.87;;
7531;SDS011;3807;49.030;8.714;2023-11-19T02:50:04;1.20;;;0.80;;
7531;SDS011;3807;49.030;8.714;2023-11-19T02:52:32;1.33;;;0.80;;
7531;SDS011;3807;49.030;8.714;2023-11-19T02:55:02;2.00;;;0.80;;
7531;SDS011;3807;49.030;8.714;2023-11-19T02:57:30;0.60;;;0.60;;
7531;SDS011;3807;49.030;8.714;2023-11-19T02:59:56;1.90;;;0.80;;
7531;SDS011;3807;49.030;8.714;2023-11-19T03:02:21;1.53;;;0.80;;
7531;SDS011;3807;49.030;8.714;2023-11-19T03:04:47;0.80;;;0.80;;
7531;SDS011;3807;49.030;8.714;2023-11-19T03:07:12;0.70;;;0.70;;
7531;SDS011;3807;49.030;8.714;2023-11-19T03:09:38;1.00;;;0.80;;
7531;SDS011;3807;49.030;8.714;2023-11-19T03:12:05;0.73;;;0.73;;
7531;SDS011;3807;49.030;8.714;2023-11-19T03:14:33;2.60;;;0.90;;
7531;SDS011;3807;49.030;8.714;2023-11-19T03:16:59;2.83;;;0.93;;
7531;SDS011;3807;49.030;8.714;2023-11-19T03:19:24;0.60;;;0.60;;
7531;SDS011;3807;49.030;8.714;2023-11-19T03:21:51;0.80;;;0.80;;
7531;SDS011;3807;49.030;8.714;2023-11-19T03:24:17;0.70;;;0.70;;
7531;SDS011;3807;49.030;8.714;2023-11-19T03:26:42;0.70;;;0.70;;
7531;SDS011;3807;49.030;8.714;2023-11-19T03:29:07;0.70;;;0.70;;
7531;SDS011;3807;49.030;8.714;2023-11-19T03:31:33;0.53;;;0.53;;
7531;SDS011;3807;49.030;8.714;2023-11-19T03:33:58;0.80;;;0.70;;
7531;SDS011;3807;49.030;8.714;2023-11-19T03:36:23;0.70;;;0.70;;
7531;SDS011;3807;49.030;8.714;2023-11-19T03:38:49;1.00;;;0.90;;
7531;SDS011;3807;49.030;8.714;2023-11-19T03:41:14;1.00;;;0.77;;
7531;SDS011;3807;49.030;8.714;2023-11-19T03:43:41;1.33;;;0.80;;
7531;SDS011;3807;49.030;8.714;2023-11-19T03:46:18;1.17;;;0.90;;
7531;SDS011;3807;49.030;8.714;2023-11-19T03:48:46;0.80;;;0.80;;
7531;SDS011;3807;49.030;8.714;2023-11-19T03:51:12;0.70;;;0.70;;
7531;SDS011;3807;49.030;8.714;2023-11-19T03:53:41;0.70;;;0.70;;
7531;SDS011;3807;49.030;8.714;2023-11-19T03:56:09;0.80;;;0.77;;
7531;SDS011;3807;49.030;8.714;2023-11-19T03:58:36;0.50;;;0.50;;
7531;SDS011;3807;49.030;8.714;2023-11-19T04:01:03;1.90;;;0.80;;
7531;SDS011;3807;49.030;8.714;2023-11-19T04:03:29;1.60;;;0.70;;
7531;SDS011;3807;49.030;8.714;2023-11-19T04:05:54;1.53;;;0.50;;
7531;SDS011;3807;49.030;8.714;2023-11-19T04:08:19;0.80;;;0.80;;
7531;SDS011;3807;49.030;8.714;2023-11-19T04:10:45;0.67;;;0.63;;
7531;SDS011;3807;49.030;8.714;2023-11-19T04:13:10;0.60;;;0.60;;
7531;SDS011;3807;49.030;8.714;2023-11-19T04:15:35;1.07;;;0.90;;
7531;SDS011;3807;49.030;8.714;2023-11-19T04:18:01;1.27;;;0.80;;
7531;SDS011;3807;49.030;8.714;2023-11-19T04:20:26;2.03;;;0.80;;
7531;SDS011;3807;49.030;8.714;2023-11-19T04:22:51;1.97;;;0.90;;
7531;SDS011;3807;49.030;8.714;2023-11-19T04:25:18;0.70;;;0.70;;
7531;SDS011;3807;49.030;8.714;2023-11-19T04:27:44;0.97;;;0.80;;
7531;SDS011;3807;49.030;8.714;2023-11-19T04:30:10;0.70;;;0.60;;
7531;SDS011;3807;49.030;8.714;2023-11-19T04:32:36;1.70;;;0.97;;
7531;SDS011;3807;49.030;8.714;2023-11-19T04:35:01;0.77;;;0.73;;
7531;SDS011;3807;49.030;8.714;2023-11-19T04:37:26;0.80;;;0.80;;
7531;SDS011;3807;49.030;8.714;2023-11-19T04:39:52;1.00;;;0.80;;
7531;SDS011;3807;49.030;8.714;2023-11-19T04:42:17;1.13;;;0.80;;
7531;SDS011;3807;49.030;8.714;2023-11-19T04:44:43;1.90;;;1.00;;
7531;SDS011;3807;49.030;8.714;2023-11-19T04:47:08;2.43;;;1.00;;
7531;SDS011;3807;49.030;8.714;2023-11-19T04:49:39;0.87;;;0.70;;
7531;SDS011;3807;49.030;8.714;2023-11-19T04:52:05;1.00;;;0.87;;
7531;SDS011;3807;49.030;8.714;2023-11-19T04:54:30;1.03;;;0.80;;
7531;SDS011;3807;49.030;8.714;2023-11-19T04:56:56;3.90;;;0.97;;
7531;SDS011;3807;49.030;8.714;2023-11-19T04:59:21;3.67;;;0.90;;
7531;SDS011;3807;49.030;8.714;2023-11-19T05:01:47;0.90;;;0.90;;
7531;SDS011;3807;49.030;8.714;2023-11-19T05:04:13;0.67;;;0.67;;
7531;SDS011;3807;49.030;8.714;2023-11-19T05:06:38;0.60;;;0.60;;
7531;SDS011;3807;49.030;8.714;2023-11-19T05:09:03;3.33;;;0.80;;
7531;SDS011;3807;49.030;8.714;2023-11-19T05:11:37;1.13;;;0.87;;
7531;SDS011;3807;49.030;8.714;2023-11-19T05:14:03;0.70;;;0.70;;
7531;SDS011;3807;49.030;8.714;2023-11-19T05:16:29;2.23;;;0.80;;
7531;SDS011;3807;49.030;8.714;2023-11-19T05:18:54;1.43;;;0.80;;
7531;SDS011;3807;49.030;8.714;2023-11-19T05:21:20;0.80;;;0.80;;
7531;SDS011;3807;49.030;8.714;2023-11-19T05:23:46;0.83;;;0.70;;
7531;SDS011;3807;49.030;8.714;2023-11-19T05:26:18;1.90;;;0.80;;
7531;SDS011;3807;49.030;8.714;2023-11-19T05:28:45;2.50;;;1.00;;
7531;SDS011;3807;49.030;8.714;2023-11-19T05:31:10;1.03;;;0.80;;
7531;SDS011;3807;49.030;8.714;2023-11-19T05:33:36;2.10;;;0.80;;
7531;SDS011;3807;49.030;8.714;2023-11-19T05:36:01;0.73;;;0.70;;
7531;SDS011;3807;49.030;8.714;2023-11-19T05:38:28;2.80;;;1.00;;
7531;SDS011;3807;49.030;8.714;2023-11-19T05:40:54;2.00;;;0.70;;
7531;SDS011;3807;49.030;8.714;2023-11-19T05:43:19;5.50;;;0.97;;
7531;SDS011;3807;49.030;8.714;2023-11-19T05:45:45;0.83;;;0.80;;
7531;SDS011;3807;49.030;8.714;2023-11-19T05:48:10;0.90;;;0.80;;
7531;SDS011;3807;49.030;8.714;2023-11-19T05:50:35;0.70;;;0.70;;
7531;SDS011;3807;49.030;8.714;2023-11-19T05:53:01;0.90;;;0.67;;
7531;SDS011;3807;49.030;8.714;2023-11-19T05:55:26;1.30;;;1.03;;
7531;SDS011;3807;49.030;8.714;2023-11-19T05:57:53;1.53;;;0.80;;
7531;SDS011;3807;49.030;8.714;2023-11-19T06:00:18;1.13;;;0.83;;
7531;SDS011;3807;49.030;8.714;2023-11-19T06:02:44;0.80;;;0.60;;
7531;SDS011;3807;49.030;8.714;2023-11-19T06:05:09;2.17;;;0.83;;
7531;SDS011;3807;49.030;8.714;2023-11-19T06:07:35;1.10;;;0.73;;
7531;SDS011;3807;49.030;8.714;2023-11-19T06:10:01;0.87;;;0.80;;
7531;SDS011;3807;49.030;8.714;2023-11-19T06:12:28;3.47;;;0.70;;
7531;SDS011;3807;49.030;8.714;2023-11-19T06:14:53;2.03;;;0.80;;
7531;SDS011;3807;49.030;8.714;2023-11-19T06:17:18;0.70;;;0.70;;
7531;SDS011;3807;49.030;8.714;2023-11-19T06:19:44;3.33;;;0.80;;
7531;SDS011;3807;49.030;8.714;2023-11-19T06:22:10;0.73;;;0.73;;
7531;SDS011;3807;49.030;8.714;2023-11-19T06:24:36;2.90;;;0.80;;
7531;SDS011;3807;49.030;8.714;2023-11-19T06:27:01;0.87;;;0.80;;
7531;SDS011;3807;49.030;8.714;2023-11-19T06:29:27;0.53;;;0.53;;
7531;SDS011;3807;49.030;8.714;2023-11-19T06:31:53;0.80;;;0.70;;
7531;SDS011;3807;49.030;8.714;2023-11-19T06:34:18;1.20;;;0.90;;
7531;SDS011;3807;49.030;8.714;2023-11-19T06:36:44;1.23;;;0.80;;
7531;SDS011;3807;49.030;8.714;2023-11-19T06:39:09;0.60;;;0.60;;
7531;SDS011;3807;49.030;8.714;2023-11-19T06:41:35;2.63;;;0.70;;
7531;SDS011;3807;49.030;8.714;2023-11-19T06:44:02;1.03;;;0.73;;
7531;SDS011;3807;49.030;8.714;2023-11-19T06:46:29;2.70;;;0.87;;
7531;SDS011;3807;49.030;8.714;2023-11-19T06:48:55;0.70;;;0.70;;
7531;SDS011;3807;49.030;8.714;2023-11-19T06:51:20;1.23;;;0.80;;
7531;SDS011;3807;49.030;8.714;2023-11-19T06:53:45;1.27;;;0.80;;
7531;SDS011;3807;49.030;8.714;2023-11-19T06:56:20;2.00;;;1.00;;
7531;SDS011;3807;49.030;8.714;2023-11-19T06:58:46;0.60;;;0.60;;
7531;SDS011;3807;49.030;8.714;2023-11-19T07:01:13;1.27;;;0.93;;
7531;SDS011;3807;49.030;8.714;2023-11-19T07:03:40;2.83;;;0.77;;
7531;SDS011;3807;49.030;8.714;2023-11-19T07:06:05;6.23;;;0.77;;
7531;SDS011;3807;49.030;8.714;2023-11-19T07:08:30;1.43;;;0.83;;
7531;SDS011;3807;49.030;8.714;2023-11-19T07:10:56;1.07;;;0.80;;
7531;SDS011;3807;49.030;8.714;2023-11-19T07:13:21;2.30;;;1.00;;
7531;SDS011;3807;49.030;8.714;2023-11-19T07:15:46;2.17;;;0.90;;
7531;SDS011;3807;49.030;8.714;2023-11-19T07:18:12;1.77;;;0.87;;
7531;SDS011;3807;49.030;8.714;2023-11-19T07:20:37;1.57;;;0.90;;
7531;SDS011;3807;49.030;8.714;2023-11-19T07:23:03;1.33;;;1.00;;
7531;SDS011;3807;49.030;8.714;2023-11-19T07:25:29;1.53;;;1.03;;
7531;SDS011;3807;49.030;8.714;2023-11-19T07:27:54;2.37;;;1.10;;
7531;SDS011;3807;49.030;8.714;2023-11-19T07:30:19;1.00;;;0.90;;
7531;SDS011;3807;49.030;8.714;2023-11-19T07:32:45;3.60;;;1.53;;
7531;SDS011;3807;49.030;8.714;2023-11-19T07:35:10;2.67;;;1.60;;
7531;SDS011;3807;49.030;8.714;2023-11-19T07:37:36;4.93;;;1.47;;
7531;SDS011;3807;49.030;8.714;2023-11-19T07:40:02;1.20;;;0.90;;
7531;SDS011;3807;49.030;8.714;2023-11-19T07:42:28;4.03;;;1.20;;
7531;SDS011;3807;49.030;8.714;2023-11-19T07:44:54;2.83;;;0.90;;
7531;SDS011;3807;49.030;8.714;2023-11-19T07:47:21;0.90;;;0.80;;
7531;SDS011;3807;49.030;8.714;2023-11-19T07:49:48;1.10;;;0.90;;
7531;SDS011;3807;49.030;8.714;2023-11-19T07:52:13;0.90;;;0.90;;
7531;SDS011;3807;49.030;8.714;2023-11-19T07:54:39;2.60;;;1.13;;
7531;SDS011;3807;49.030;8.714;2023-11-19T07:57:04;4.33;;;1.10;;
7531;SDS011;3807;49.030;8.714;2023-11-19T07:59:30;0.80;;;0.80;;
7531;SDS011;3807;49.030;8.714;2023-11-19T08:01:55;0.73;;;0.73;;
7531;SDS011;3807;49.030;8.714;2023-11-19T08:04:20;1.00;;;0.90;;
7531;SDS011;3807;49.030;8.714;2023-11-19T08:06:46;1.37;;;0.80;;
7531;SDS011;3807;49.030;8.714;2023-11-19T08:09:11;0.83;;;0.70;;
7531;SDS011;3807;49.030;8.714;2023-11-19T08:11:38;2.00;;;0.60;;
7531;SDS011;3807;49.030;8.714;2023-11-19T08:14:05;1.50;;;0.90;;
7531;SDS011;3807;49.030;8.714;2023-11-19T08:16:30;1.43;;;0.80;;
7531;SDS011;3807;49.030;8.714;2023-11-19T08:18:56;7.80;;;0.90;;
7531;SDS011;3807;49.030;8.714;2023-11-19T08:21:23;3.03;;;0.73;;
7531;SDS011;3807;49.030;8.714;2023-11-19T08:23:48;1.77;;;0.97;;
7531;SDS011;3807;49.030;8.714;2023-11-19T08:26:14;1.47;;;0.87;;
7531;SDS011;3807;49.030;8.714;2023-11-19T08:28:40;0.80;;;0.80;;
7531;SDS011;3807;49.030;8.714;2023-11-19T08:31:05;3.00;;;0.90;;
7531;SDS011;3807;49.030;8.714;2023-11-19T08:33:31;1.60;;;0.87;;
7531;SDS011;3807;49.030;8.714;2023-11-19T08:35:56;0.97;;;0.80;;
7531;SDS011;3807;49.030;8.714;2023-11-19T08:38:23;1.87;;;1.33;;
7531;SDS011;3807;49.030;8.714;2023-11-19T08:40:49;0.80;;;0.80;;
7531;SDS011;3807;49.030;8.714;2023-11-19T08:43:14;0.50;;;0.50;;
7531;SDS011;3807;49.030;8.714;2023-11-19T08:45:39;0.70;;;0.70;;
7531;SDS011;3807;49.030;8.714;2023-11-19T08:48:05;1.03;;;0.90;;
7531;SDS011;3807;49.030;8.714;2023-11-19T08:50:30;6.40;;;1.00;;
7531;SDS011;3807;49.030;8.714;2023-11-19T08:52:56;0.70;;;0.60;;
7531;SDS011;3807;49.030;8.714;2023-11-19T08:55:21;1.23;;;0.83;;
7531;SDS011;3807;49.030;8.714;2023-11-19T08:57:46;0.87;;;0.80;;
7531;SDS011;3807;49.030;8.714;2023-11-19T09:00:12;2.47;;;0.90;;
7531;SDS011;3807;49.030;8.714;2023-11-19T09:02:39;4.97;;;1.10;;
7531;SDS011;3807;49.030;8.714;2023-11-19T09:05:05;2.60;;;1.10;;
7531;SDS011;3807;49.030;8.714;2023-11-19T09:07:32;1.30;;;1.10;;
7531;SDS011;3807;49.030;8.714;2023-11-19T09:09:58;2.63;;;1.13;;
7531;SDS011;3807;49.030;8.714;2023-11-19T09:12:23;2.77;;;1.30;;
7531;SDS011;3807;49.030;8.714;2023-11-19T09:14:48;5.93;;;1.77;;
7531;SDS011;3807;49.030;8.714;2023-11-19T09:17:14;1.27;;;1.10;;
7531;SDS011;3807;49.030;8.714;2023-11-19T09:19:40;2.17;;;0.93;;
7531;SDS011;3807;49.030;8.714;2023-11-19T09:22:05;2.40;;;1.40;;
7531;SDS011;3807;49.030;8.714;2023-11-19T09:24:31;0.90;;;0.87;;
7531;SDS011;3807;49.030;8.714;2023-11-19T09:26:56;1.20;;;0.80;;
7531;SDS011;3807;49.030;8.714;2023-11-19T09:29:22;1.67;;;0.90;;
7531;SDS011;3807;49.030;8.714;2023-11-19T09:31:48;1.70;;;0.73;;
7531;SDS011;3807;49.030;8.714;2023-11-19T09:34:14;1.23;;;0.90;;
7531;SDS011;3807;49.030;8.714;2023-11-19T09:36:39;2.63;;;0.97;;
7531;SDS011;3807;49.030;8.714;2023-11-19T09:39:08;1.40;;;0.90;;
7531;SDS011;3807;49.030;8.714;2023-11-19T09:41:34;2.00;;;0.90;;
7531;SDS011;3807;49.030;8.714;2023-11-19T09:44:00;2.30;;;1.17;;
7531;SDS011;3807;49.030;8.714;2023-11-19T09:46:25;4.57;;;0.97;;
7531;SDS011;3807;49.030;8.714;2023-11-19T09:48:54;2.03;;;1.13;;
7531;SDS011;3807;49.030;8.714;2023-11-19T09:51:21;3.60;;;1.20;;
7531;SDS011;3807;49.030;8.714;2023-11-19T09:53:47;1.17;;;0.83;;
7531;SDS011;3807;49.030;8.714;2023-11-19T09:56:12;1.23;;;0.97;;
7531;SDS011;3807;49.030;8.714;2023-11-19T09:58:39;0.60;;;0.60;;
7531;SDS011;3807;49.030;8.714;2023-11-19T10:01:05;4.67;;;1.07;;
7531;SDS011;3807;49.030;8.714;2023-11-19T10:03:33;3.70;;;1.30;;
7531;SDS011;3807;49.030;8.714;2023-11-19T10:06:06;1.30;;;1.03;;
7531;SDS011;3807;49.030;8.714;2023-11-19T10:08:32;3.93;;;1.23;;
7531;SDS011;3807;49.030;8.714;2023-11-19T10:10:58;1.00;;;0.90;;
7531;SDS011;3807;49.030;8.714;2023-11-19T10:13:28;1.83;;;1.30;;
7531;SDS011;3807;49.030;8.714;2023-11-19T10:15:55;2.03;;;1.07;;
7531;SDS011;3807;49.030;8.714;2023-11-19T10:18:24;1.50;;;1.10;;
7531;SDS011;3807;49.030;8.714;2023-11-19T10:20:51;1.23;;;1.00;;
7531;SDS011;3807;49.030;8.714;2023-11-19T10:23:17;1.07;;;0.87;;
7531;SDS011;3807;49.030;8.714;2023-11-19T10:25:42;1.23;;;1.10;;
7531;SDS011;3807;49.030;8.714;2023-11-19T10:28:07;1.60;;;1.07;;
7531;SDS011;3807;49.030;8.714;2023-11-19T10:30:33;2.90;;;1.10;;
7531;SDS011;3807;49.030;8.714;2023-11-19T10:35:27;4.23;;;1.10;;
7531;SDS011;3807;49.030;8.714;2023-11-19T10:37:53;1.73;;;0.93;;
7531;SDS011;3807;49.030;8.714;2023-11-19T10:40:18;1.03;;;0.73;;
7531;SDS011;3807;49.030;8.714;2023-11-19T10:42:43;0.60;;;0.60;;
7531;SDS011;3807;49.030;8.714;2023-11-19T10:45:21;2.40;;;1.00;;
7531;SDS011;3807;49.030;8.714;2023-11-19T10:47:49;1.43;;;0.77;;
7531;SDS011;3807;49.030;8.714;2023-11-19T10:50:16;1.67;;;0.93;;
7531;SDS011;3807;49.030;8.714;2023-11-19T10:52:41;1.80;;;1.07;;
7531;SDS011;3807;49.030;8.714;2023-11-19T10:55:09;4.50;;;1.50;;
7531;SDS011;3807;49.030;8.714;2023-11-19T10:57:36;3.23;;;1.10;;
7531;SDS011;3807;49.030;8.714;2023-11-19T11:00:09;1.67;;;1.00;;
7531;SDS011;3807;49.030;8.714;2023-11-19T11:02:40;5.87;;;1.13;;
7531;SDS011;3807;49.030;8.714;2023-11-19T11:05:09;1.03;;;0.80;;
7531;SDS011;3807;49.030;8.714;2023-11-19T11:07:36;1.37;;;0.87;;
7531;SDS011;3807;49.030;8.714;2023-11-19T11:10:02;2.90;;;0.80;;
7531;SDS011;3807;49.030;8.714;2023-11-19T11:12:31;1.27;;;0.70;;
7531;SDS011;3807;49.030;8.714;2023-11-19T11:15:01;2.40;;;0.87;;
7531;SDS011;3807;49.030;8.714;2023-11-19T11:17:29;4.27;;;1.10;;
7531;SDS011;3807;49.030;8.714;2023-11-19T11:19:56;1.47;;;1.10;;
7531;SDS011;3807;49.030;8.714;2023-11-19T11:22:22;2.13;;;1.20;;
7531;SDS011;3807;49.030;8.714;2023-11-19T11:24:53;2.30;;;1.10;;
7531;SDS011;3807;49.030;8.714;2023-11-19T11:27:48;1.83;;;1.07;;
7531;SDS011;3807;49.030;8.714;2023-11-19T11:30:39;5.93;;;1.03;;
7531;SDS011;3807;49.030;8.714;2023-11-19T11:33:19;0.80;;;0.80;;
7531;SDS011;3807;49.030;8.714;2023-11-19T11:38:36;1.57;;;0.90;;
7531;SDS011;3807;49.030;8.714;2023-11-19T11:41:18;4.03;;;1.23;;
7531;SDS011;3807;49.030;8.714;2023-11-19T11:46:54;2.30;;;1.00;;
7531;SDS011;3807;49.030;8.714;2023-11-19T11:49:04;2.73;;;1.17;;
7531;SDS011;3807;49.030;8.714;2023-11-19T11:54:09;1.93;;;0.77;;
7531;SDS011;3807;49.030;8.714;2023-11-19T11:56:38;2.30;;;1.13;;
7531;SDS011;3807;49.030;8.714;2023-11-19T11:59:07;2.27;;;1.30;;
7531;SDS011;3807;49.030;8.714;2023-11-19T12:01:33;3.33;;;1.00;;
7531;SDS011;3807;49.030;8.714;2023-11-19T12:03:58;5.60;;;1.00;;
7531;SDS011;3807;49.030;8.714;2023-11-19T12:06:24;2.17;;;1.10;;
7531;SDS011;3807;49.030;8.714;2023-11-19T12:08:51;1.57;;;0.70;;
7531;SDS011;3807;49.030;8.714;2023-11-19T12:11:17;3.73;;;1.27;;
7531;SDS011;3807;49.030;8.714;2023-11-19T12:13:54;2.50;;;1.07;;
7531;SDS011;3807;49.030;8.714;2023-11-19T12:16:23;6.47;;;1.10;;
7531;SDS011;3807;49.030;8.714;2023-11-19T12:18:48;1.10;;;0.83;;
7531;SDS011;3807;49.030;8.714;2023-11-19T12:21:27;1.97;;;0.93;;
7531;SDS011;3807;49.030;8.714;2023-11-19T12:23:57;3.13;;;1.17;;
7531;SDS011;3807;49.030;8.714;2023-11-19T12:26:34;2.30;;;0.80;;
7531;SDS011;3807;49.030;8.714;2023-11-19T12:29:01;1.93;;;1.10;;
7531;SDS011;3807;49.030;8.714;2023-11-19T12:31:29;6.50;;;0.90;;
7531;SDS011;3807;49.030;8.714;2023-11-19T12:33:54;1.27;;;1.03;;
7531;SDS011;3807;49.030;8.714;2023-11-19T12:36:20;1.47;;;1.20;;
7531;SDS011;3807;49.030;8.714;2023-11-19T12:38:45;4.97;;;1.40;;
7531;SDS011;3807;49.030;8.714;2023-11-19T12:41:11;2.07;;;1.10;;
7531;SDS011;3807;49.030;8.714;2023-11-19T12:43:37;3.73;;;1.40;;
7531;SDS011;3807;49.030;8.714;2023-11-19T12:46:03;1.57;;;0.90;;
7531;SDS011;3807;49.030;8.714;2023-11-19T12:48:45;2.83;;;1.10;;
7531;SDS011;3807;49.030;8.714;2023-11-19T12:51:12;1.90;;;0.93;;
7531;SDS011;3807;49.030;8.714;2023-11-19T12:53:50;1.60;;;1.20;;
7531;SDS011;3807;49.030;8.714;2023-11-19T12:56:19;2.20;;;1.00;;
7531;SDS011;3807;49.030;8.714;2023-11-19T12:58:45;1.83;;;1.00;;
7531;SDS011;3807;49.030;8.714;2023-11-19T13:01:10;2.10;;;1.20;;
7531;SDS011;3807;49.030;8.714;2023-11-19T13:03:42;4.33;;;1.30;;
7531;SDS011;3807;49.030;8.714;2023-11-19T13:06:08;1.50;;;0.90;;
7531;SDS011;3807;49.030;8.714;2023-11-19T13:11:15;1.00;;;0.80;;
7531;SDS011;3807;49.030;8.714;2023-11-19T13:13:59;4.17;;;0.97;;
7531;SDS011;3807;49.030;8.714;2023-11-19T13:16:33;2.57;;;0.80;;
7531;SDS011;3807;49.030;8.714;2023-11-19T13:19:01;3.77;;;1.00;;
7531;SDS011;3807;49.030;8.714;2023-11-19T13:21:26;2.53;;;1.07;;
7531;SDS011;3807;49.030;8.714;2023-11-19T13:23:52;3.47;;;1.10;;
7531;SDS011;3807;49.030;8.714;2023-11-19T13:26:17;1.10;;;0.97;;
7531;SDS011;3807;49.030;8.714;2023-11-19T13:28:42;4.73;;;1.10;;
7531;SDS011;3807;49.030;8.714;2023-11-19T13:31:08;2.30;;;0.90;;
7531;SDS011;3807;49.030;8.714;2023-11-19T13:33:33;1.73;;;1.17;;
7531;SDS011;3807;49.030;8.714;2023-11-19T13:35:59;4.97;;;1.47;;
7531;SDS011;3807;49.030;8.714;2023-11-19T13:38:30;2.77;;;1.43;;
7531;SDS011;3807;49.030;8.714;2023-11-19T13:40:56;0.60;;;0.60;;
7531;SDS011;3807;49.030;8.714;2023-11-19T13:43:21;1.10;;;0.83;;
7531;SDS011;3807;49.030;8.714;2023-11-19T13:45:46;1.17;;;0.83;;
7531;SDS011;3807;49.030;8.714;2023-11-19T13:48:12;1.10;;;0.70;;
7531;SDS011;3807;49.030;8.714;2023-11-19T13:50:37;1.53;;;0.80;;
7531;SDS011;3807;49.030;8.714;2023-11-19T13:53:02;3.00;;;0.93;;
7531;SDS011;3807;49.030;8.714;2023-11-19T13:55:30;1.67;;;0.77;;
7531;SDS011;3807;49.030;8.714;2023-11-19T13:57:55;3.73;;;1.10;;
7531;SDS011;3807;49.030;8.714;2023-11-19T14:00:20;3.00;;;1.10;;
7531;SDS011;3807;49.030;8.714;2023-11-19T14:02:48;0.80;;;0.80;;
7531;SDS011;3807;49.030;8.714;2023-11-19T14:05:13;3.77;;;0.80;;
7531;SDS011;3807;49.030;8.714;2023-11-19T14:07:40;1.40;;;1.00;;
7531;SDS011;3807;49.030;8.714;2023-11-19T14:10:06;1.77;;;0.90;;
7531;SDS011;3807;49.030;8.714;2023-11-19T14:12:34;2.63;;;1.13;;
7531;SDS011;3807;49.030;8.714;2023-11-19T14:15:00;4.20;;;1.00;;
7531;SDS011;3807;49.030;8.714;2023-11-19T14:17:26;0.93;;;0.70;;
7531;SDS011;3807;49.030;8.714;2023-11-19T14:19:51;1.23;;;0.90;;
7531;SDS011;3807;49.030;8.714;2023-11-19T14:22:17;5.80;;;1.60;;
7531;SDS011;3807;49.030;8.714;2023-11-19T14:24:42;3.73;;;1.03;;
7531;SDS011;3807;49.030;8.714;2023-11-19T14:27:08;2.27;;;1.00;;
7531;SDS011;3807;49.030;8.714;2023-11-19T14:29:34;2.33;;;1.10;;
7531;SDS011;3807;49.030;8.714;2023-11-19T14:32:00;4.10;;;1.13;;
7531;SDS011;3807;49.030;8.714;2023-11-19T14:34:26;1.40;;;1.10;;
7531;SDS011;3807;49.030;8.714;2023-11-19T14:36:52;2.13;;;1.20;;
7531;SDS011;3807;49.030;8.714;2023-11-19T14:39:18;1.23;;;0.80;;
7531;SDS011;3807;49.030;8.714;2023-11-19T14:41:44;2.87;;;1.10;;
7531;SDS011;3807;49.030;8.714;2023-11-19T14:44:09;3.10;;;1.10;;
7531;SDS011;3807;49.030;8.714;2023-11-19T14:46:35;4.43;;;1.13;;
7531;SDS011;3807;49.030;8.714;2023-11-19T14:49:00;1.37;;;1.00;;
7531;SDS011;3807;49.030;8.714;2023-11-19T14:51:26;3.10;;;1.10;;
7531;SDS011;3807;49.030;8.714;2023-11-19T14:53:51;3.37;;;1.10;;
7531;SDS011;3807;49.030;8.714;2023-11-19T14:56:16;7.73;;;1.10;;
7531;SDS011;3807;49.030;8.714;2023-11-19T14:58:42;2.90;;;1.03;;
7531;SDS011;3807;49.030;8.714;2023-11-19T15:01:11;1.43;;;0.90;;
7531;SDS011;3807;49.030;8.714;2023-11-19T15:03:37;2.40;;;1.20;;
7531;SDS011;3807;49.030;8.714;2023-11-19T15:06:02;1.87;;;0.93;;
7531;SDS011;3807;49.030;8.714;2023-11-19T15:08:27;2.90;;;1.30;;
7531;SDS011;3807;49.030;8.714;2023-11-19T15:10:53;2.40;;;1.00;;
7531;SDS011;3807;49.030;8.714;2023-11-19T15:13:18;1.30;;;1.10;;
7531;SDS011;3807;49.030;8.714;2023-11-19T15:15:44;3.77;;;1.03;;
7531;SDS011;3807;49.030;8.714;2023-11-19T15:18:09;2.43;;;1.07;;
7531;SDS011;3807;49.030;8.714;2023-11-19T15:20:35;3.43;;;0.93;;
7531;SDS011;3807;49.030;8.714;2023-11-19T15:23:01;1.30;;;0.80;;
7531;SDS011;3807;49.030;8.714;2023-11-19T15:25:27;2.07;;;1.07;;